sensor_id;sensor_type;location;lat;lon;timestamp;P1;durP1;ratioP1;P2;durP2;ratioP2
49217;SDS011;35045;51.194;7.268;2023-11-19T00:00:50;4.30;;;2.03;;
49217;SDS011;35045;51.194;7.268;2023-11-19T00:03:18;4.50;;;1.73;;
49217;SDS011;35045;51.194;7.268;2023-11-19T00:05:44;4.18;;;1.88;;
49217;SDS011;35045;51.194;7.268;2023-11-19T00:08:10;4.30;;;2.10;;
49217;SDS011;35045;51.194;7.268;2023-11-19T00:10:37;4.20;;;1.92;;
49217;SDS011;35045;51.194;7.268;2023-11-19T00:13:03;4.30;;;2.08;;
49217;SDS011;35045;51.194;7.268;2023-11-19T00:15:30;4.18;;;1.73;;
49217;SDS011;35045;51.194;7.268;2023-11-19T00:17:56;5.10;;;2.20;;
49217;SDS011;35045;51.194;7.268;2023-11-19T00:20:24;4.68;;;2.30;;
49217;SDS011;35045;51.194;7.268;2023-11-19T00:22:50;6.22;;;2.30;;
49217;SDS011;35045;51.194;7.268;2023-11-19T00:25:20;6.55;;;2.20;;
49217;SDS011;35045;51.194;7.268;2023-11-19T00:27:47;4.75;;;2.42;;
49217;SDS011;35045;51.194;7.268;2023-11-19T00:30:13;4.45;;;2.42;;
49217;SDS011;35045;51.194;7.268;2023-11-19T00:32:40;4.70;;;2.60;;
49217;SDS011;35045;51.194;7.268;2023-11-19T00:35:07;4.63;;;2.58;;
49217;SDS011;35045;51.194;7.268;2023-11-19T00:37:35;4.20;;;2.25;;
49217;SDS011;35045;51.194;7.268;2023-11-19T00:40:02;4.95;;;2.53;;
49217;SDS011;35045;51.194;7.268;2023-11-19T00:42:31;6.75;;;2.42;;
49217;SDS011;35045;51.194;7.268;2023-11-19T00:44:58;4.40;;;2.50;;
49217;SDS011;35045;51.194;7.268;2023-11-19T00:47:24;6.85;;;2.60;;
49217;SDS011;35045;51.194;7.268;2023-11-19T00:49:50;5.50;;;3.20;;
49217;SDS011;35045;51.194;7.268;2023-11-19T00:52:17;5.30;;;3.13;;
49217;SDS011;35045;51.194;7.268;2023-11-19T00:54:44;6.40;;;3.17;;
49217;SDS011;35045;51.194;7.268;2023-11-19T00:57:10;5.90;;;3.33;;
49217;SDS011;35045;51.194;7.268;2023-11-19T00:59:36;5.72;;;3.50;;
49217;SDS011;35045;51.194;7.268;2023-11-19T01:02:03;5.60;;;3.20;;
49217;SDS011;35045;51.194;7.268;2023-11-19T01:04:34;5.57;;;3.45;;
49217;SDS011;35045;51.194;7.268;2023-11-19T01:07:02;5.90;;;2.95;;
49217;SDS011;35045;51.194;7.268;2023-11-19T01:09:38;5.35;;;3.00;;
49217;SDS011;35045;51.194;7.268;2023-11-19T01:12:04;5.57;;;2.90;;
49217;SDS011;35045;51.194;7.268;2023-11-19T01:14:31;5.65;;;3.20;;
49217;SDS011;35045;51.194;7.268;2023-11-19T01:16:57;5.47;;;2.63;;
49217;SDS011;35045;51.194;7.268;2023-11-19T01:19:24;5.03;;;2.47;;
49217;SDS011;35045;51.194;7.268;2023-11-19T01:21:50;4.78;;;2.83;;
49217;SDS011;35045;51.194;7.268;2023-11-19T01:24:18;5.65;;;2.85;;
49217;SDS011;35045;51.194;7.268;2023-11-19T01:26:44;5.70;;;3.25;;
49217;SDS011;35045;51.194;7.268;2023-11-19T01:29:11;5.22;;;2.60;;
49217;SDS011;35045;51.194;7.268;2023-11-19T01:31:45;6.35;;;2.80;;
49217;SDS011;35045;51.194;7.268;2023-11-19T01:34:12;5.00;;;2.58;;
49217;SDS011;35045;51.194;7.268;2023-11-19T01:36:39;3.67;;;2.10;;
49217;SDS011;35045;51.194;7.268;2023-11-19T01:39:05;4.70;;;2.55;;
49217;SDS011;35045;51.194;7.268;2023-11-19T01:41:35;5.45;;;2.28;;
49217;SDS011;35045;51.194;7.268;2023-11-19T01:44:02;4.97;;;2.50;;
49217;SDS011;35045;51.194;7.268;2023-11-19T01:46:29;6.22;;;2.78;;
49217;SDS011;35045;51.194;7.268;2023-11-19T01:48:58;4.75;;;2.70;;
49217;SDS011;35045;51.194;7.268;2023-11-19T01:51:25;4.53;;;2.65;;
49217;SDS011;35045;51.194;7.268;2023-11-19T01:53:53;6.13;;;3.08;;
49217;SDS011;35045;51.194;7.268;2023-11-19T01:56:19;4.40;;;2.65;;
49217;SDS011;35045;51.194;7.268;2023-11-19T01:58:47;5.60;;;2.88;;
49217;SDS011;35045;51.194;7.268;2023-11-19T02:01:15;5.82;;;3.08;;
49217;SDS011;35045;51.194;7.268;2023-11-19T02:03:42;6.80;;;2.80;;
49217;SDS011;35045;51.194;7.268;2023-11-19T02:06:08;6.10;;;3.35;;
49217;SDS011;35045;51.194;7.268;2023-11-19T02:08:36;7.88;;;3.53;;
49217;SDS011;35045;51.194;7.268;2023-11-19T02:11:04;5.50;;;3.13;;
49217;SDS011;35045;51.194;7.268;2023-11-19T02:13:32;6.18;;;3.30;;
49217;SDS011;35045;51.194;7.268;2023-11-19T02:15:59;6.60;;;4.18;;
49217;SDS011;35045;51.194;7.268;2023-11-19T02:18:27;7.05;;;4.32;;
49217;SDS011;35045;51.194;7.268;2023-11-19T02:20:54;8.05;;;4.07;;
49217;SDS011;35045;51.194;7.268;2023-11-19T02:23:21;6.60;;;4.40;;
49217;SDS011;35045;51.194;7.268;2023-11-19T02:25:52;6.65;;;4.43;;
49217;SDS011;35045;51.194;7.268;2023-11-19T02:28:25;8.52;;;4.38;;
49217;SDS011;35045;51.194;7.268;2023-11-19T02:30:52;7.50;;;4.40;;
49217;SDS011;35045;51.194;7.268;2023-11-19T02:33:18;8.65;;;4.30;;
49217;SDS011;35045;51.194;7.268;2023-11-19T02:35:45;9.45;;;4.70;;
49217;SDS011;35045;51.194;7.268;2023-11-19T02:38:11;9.70;;;5.40;;
49217;SDS011;35045;51.194;7.268;2023-11-19T02:40:39;8.45;;;4.80;;
49217;SDS011;35045;51.194;7.268;2023-11-19T02:43:05;11.77;;;4.97;;
49217;SDS011;35045;51.194;7.268;2023-11-19T02:45:32;11.85;;;5.25;;
49217;SDS011;35045;51.194;7.268;2023-11-19T02:47:58;7.07;;;4.30;;
49217;SDS011;35045;51.194;7.268;2023-11-19T02:50:27;8.65;;;5.10;;
49217;SDS011;35045;51.194;7.268;2023-11-19T02:52:54;11.50;;;5.32;;
49217;SDS011;35045;51.194;7.268;2023-11-19T02:55:24;10.70;;;4.63;;
49217;SDS011;35045;51.194;7.268;2023-11-19T02:57:51;8.45;;;4.50;;
49217;SDS011;35045;51.194;7.268;2023-11-19T03:00:19;8.35;;;4.60;;
49217;SDS011;35045;51.194;7.268;2023-11-19T03:02:50;13.43;;;4.85;;
49217;SDS011;35045;51.194;7.268;2023-11-19T03:05:31;11.95;;;5.00;;
49217;SDS011;35045;51.194;7.268;2023-11-19T03:07:57;17.08;;;5.70;;
49217;SDS011;35045;51.194;7.268;2023-11-19T03:10:23;11.55;;;4.68;;
49217;SDS011;35045;51.194;7.268;2023-11-19T03:12:49;13.90;;;4.43;;
49217;SDS011;35045;51.194;7.268;2023-11-19T03:15:16;13.50;;;4.70;;
49217;SDS011;35045;51.194;7.268;2023-11-19T03:17:43;10.18;;;4.95;;
49217;SDS011;35045;51.194;7.268;2023-11-19T03:20:10;12.93;;;5.40;;
49217;SDS011;35045;51.194;7.268;2023-11-19T03:22:41;12.20;;;4.82;;
49217;SDS011;35045;51.194;7.268;2023-11-19T03:25:07;13.15;;;4.97;;
49217;SDS011;35045;51.194;7.268;2023-11-19T03:27:37;9.43;;;3.90;;
49217;SDS011;35045;51.194;7.268;2023-11-19T03:30:05;8.60;;;4.05;;
49217;SDS011;35045;51.194;7.268;2023-11-19T03:32:32;9.65;;;4.68;;
49217;SDS011;35045;51.194;7.268;2023-11-19T03:35:00;11.75;;;4.20;;
49217;SDS011;35045;51.194;7.268;2023-11-19T03:37:27;11.68;;;3.90;;
49217;SDS011;35045;51.194;7.268;2023-11-19T03:39:54;11.50;;;4.55;;
49217;SDS011;35045;51.194;7.268;2023-11-19T03:42:20;11.73;;;4.32;;
49217;SDS011;35045;51.194;7.268;2023-11-19T03:44:47;12.30;;;3.72;;
49217;SDS011;35045;51.194;7.268;2023-11-19T03:47:15;15.30;;;3.97;;
49217;SDS011;35045;51.194;7.268;2023-11-19T03:49:41;13.75;;;3.45;;
49217;SDS011;35045;51.194;7.268;2023-11-19T03:52:07;12.18;;;3.75;;
49217;SDS011;35045;51.194;7.268;2023-11-19T03:54:35;14.05;;;4.30;;
49217;SDS011;35045;51.194;7.268;2023-11-19T03:57:01;12.65;;;4.00;;
49217;SDS011;35045;51.194;7.268;2023-11-19T03:59:29;13.63;;;3.47;;
49217;SDS011;35045;51.194;7.268;2023-11-19T04:01:55;15.65;;;3.65;;
49217;SDS011;35045;51.194;7.268;2023-11-19T04:04:22;11.98;;;3.30;;
49217;SDS011;35045;51.194;7.268;2023-11-19T04:06:48;14.80;;;3.08;;
49217;SDS011;35045;51.194;7.268;2023-11-19T04:09:14;15.30;;;3.85;;
49217;SDS011;35045;51.194;7.268;2023-11-19T04:11:40;15.13;;;4.45;;
49217;SDS011;35045;51.194;7.268;2023-11-19T04:14:07;14.85;;;3.65;;
49217;SDS011;35045;51.194;7.268;2023-11-19T04:16:33;11.18;;;3.40;;
49217;SDS011;35045;51.194;7.268;2023-11-19T04:18:59;16.27;;;3.78;;
49217;SDS011;35045;51.194;7.268;2023-11-19T04:21:25;13.68;;;2.90;;
49217;SDS011;35045;51.194;7.268;2023-11-19T04:23:52;16.58;;;3.42;;
49217;SDS011;35045;51.194;7.268;2023-11-19T04:26:19;14.40;;;3.55;;
49217;SDS011;35045;51.194;7.268;2023-11-19T04:28:45;20.60;;;3.33;;
49217;SDS011;35045;51.194;7.268;2023-11-19T04:31:11;15.25;;;3.22;;
49217;SDS011;35045;51.194;7.268;2023-11-19T04:33:37;12.20;;;3.40;;
49217;SDS011;35045;51.194;7.268;2023-11-19T04:36:03;10.63;;;3.10;;
49217;SDS011;35045;51.194;7.268;2023-11-19T04:38:30;12.20;;;3.13;;
49217;SDS011;35045;51.194;7.268;2023-11-19T04:40:56;14.30;;;3.13;;
49217;SDS011;35045;51.194;7.268;2023-11-19T04:43:23;18.58;;;4.13;;
49217;SDS011;35045;51.194;7.268;2023-11-19T04:45:49;11.75;;;3.70;;
49217;SDS011;35045;51.194;7.268;2023-11-19T04:48:15;18.70;;;3.40;;
49217;SDS011;35045;51.194;7.268;2023-11-19T04:50:41;12.65;;;3.22;;
49217;SDS011;35045;51.194;7.268;2023-11-19T04:53:08;13.07;;;3.15;;
49217;SDS011;35045;51.194;7.268;2023-11-19T04:55:34;21.10;;;4.05;;
49217;SDS011;35045;51.194;7.268;2023-11-19T04:58:00;12.45;;;3.78;;
49217;SDS011;35045;51.194;7.268;2023-11-19T05:00:26;12.40;;;3.40;;
49217;SDS011;35045;51.194;7.268;2023-11-19T05:02:52;13.90;;;3.72;;
49217;SDS011;35045;51.194;7.268;2023-11-19T05:05:19;18.48;;;4.10;;
49217;SDS011;35045;51.194;7.268;2023-11-19T05:07:45;12.38;;;3.78;;
49217;SDS011;35045;51.194;7.268;2023-11-19T05:10:12;13.88;;;4.30;;
49217;SDS011;35045;51.194;7.268;2023-11-19T05:12:38;16.60;;;4.70;;
49217;SDS011;35045;51.194;7.268;2023-11-19T05:15:05;13.38;;;3.60;;
49217;SDS011;35045;51.194;7.268;2023-11-19T05:17:31;19.88;;;4.07;;
49217;SDS011;35045;51.194;7.268;2023-11-19T05:19:57;17.00;;;3.92;;
49217;SDS011;35045;51.194;7.268;2023-11-19T05:22:24;17.83;;;3.72;;
49217;SDS011;35045;51.194;7.268;2023-11-19T05:24:51;17.05;;;3.65;;
49217;SDS011;35045;51.194;7.268;2023-11-19T05:27:18;13.98;;;3.42;;
49217;SDS011;35045;51.194;7.268;2023-11-19T05:29:44;14.38;;;3.70;;
49217;SDS011;35045;51.194;7.268;2023-11-19T05:32:10;17.05;;;3.30;;
49217;SDS011;35045;51.194;7.268;2023-11-19T05:34:37;17.33;;;3.70;;
49217;SDS011;35045;51.194;7.268;2023-11-19T05:37:15;14.35;;;3.30;;
49217;SDS011;35045;51.194;7.268;2023-11-19T05:39:42;16.27;;;3.40;;
49217;SDS011;35045;51.194;7.268;2023-11-19T05:42:08;18.08;;;3.67;;
49217;SDS011;35045;51.194;7.268;2023-11-19T05:44:35;18.05;;;4.43;;
49217;SDS011;35045;51.194;7.268;2023-11-19T05:47:03;17.75;;;3.95;;
49217;SDS011;35045;51.194;7.268;2023-11-19T05:49:30;15.38;;;3.85;;
49217;SDS011;35045;51.194;7.268;2023-11-19T05:51:57;17.77;;;3.58;;
49217;SDS011;35045;51.194;7.268;2023-11-19T05:54:23;13.63;;;3.33;;
49217;SDS011;35045;51.194;7.268;2023-11-19T05:56:49;16.63;;;3.15;;
49217;SDS011;35045;51.194;7.268;2023-11-19T05:59:16;13.10;;;3.30;;
49217;SDS011;35045;51.194;7.268;2023-11-19T06:01:43;18.05;;;3.92;;
49217;SDS011;35045;51.194;7.268;2023-11-19T06:04:10;19.30;;;4.13;;
49217;SDS011;35045;51.194;7.268;2023-11-19T06:06:36;17.52;;;3.53;;
49217;SDS011;35045;51.194;7.268;2023-11-19T06:09:03;18.90;;;3.63;;
49217;SDS011;35045;51.194;7.268;2023-11-19T06:11:33;16.67;;;4.05;;
49217;SDS011;35045;51.194;7.268;2023-11-19T06:14:00;15.93;;;3.70;;
49217;SDS011;35045;51.194;7.268;2023-11-19T06:16:26;17.45;;;4.57;;
49217;SDS011;35045;51.194;7.268;2023-11-19T06:18:52;14.80;;;3.17;;
49217;SDS011;35045;51.194;7.268;2023-11-19T06:21:19;13.45;;;3.47;;
49217;SDS011;35045;51.194;7.268;2023-11-19T06:23:45;15.95;;;3.70;;
49217;SDS011;35045;51.194;7.268;2023-11-19T06:26:11;19.55;;;4.38;;
49217;SDS011;35045;51.194;7.268;2023-11-19T06:28:39;16.33;;;4.38;;
49217;SDS011;35045;51.194;7.268;2023-11-19T06:31:05;14.73;;;3.78;;
49217;SDS011;35045;51.194;7.268;2023-11-19T06:33:32;16.98;;;4.18;;
49217;SDS011;35045;51.194;7.268;2023-11-19T06:35:58;20.20;;;4.28;;
49217;SDS011;35045;51.194;7.268;2023-11-19T06:38:25;13.07;;;3.70;;
49217;SDS011;35045;51.194;7.268;2023-11-19T06:40:51;15.48;;;4.05;;
49217;SDS011;35045;51.194;7.268;2023-11-19T06:43:18;17.45;;;3.60;;
49217;SDS011;35045;51.194;7.268;2023-11-19T06:45:44;21.27;;;4.10;;
49217;SDS011;35045;51.194;7.268;2023-11-19T06:48:10;19.75;;;3.72;;
49217;SDS011;35045;51.194;7.268;2023-11-19T06:50:37;21.95;;;4.35;;
49217;SDS011;35045;51.194;7.268;2023-11-19T06:53:03;21.15;;;4.47;;
49217;SDS011;35045;51.194;7.268;2023-11-19T06:55:31;15.95;;;3.45;;
49217;SDS011;35045;51.194;7.268;2023-11-19T06:57:59;17.60;;;4.20;;
49217;SDS011;35045;51.194;7.268;2023-11-19T07:00:26;18.80;;;3.80;;
49217;SDS011;35045;51.194;7.268;2023-11-19T07:02:52;18.98;;;4.53;;
49217;SDS011;35045;51.194;7.268;2023-11-19T07:05:18;16.33;;;3.92;;
49217;SDS011;35045;51.194;7.268;2023-11-19T07:07:45;19.08;;;3.50;;
49217;SDS011;35045;51.194;7.268;2023-11-19T07:10:12;18.05;;;3.80;;
49217;SDS011;35045;51.194;7.268;2023-11-19T07:12:38;14.93;;;3.67;;
49217;SDS011;35045;51.194;7.268;2023-11-19T07:15:05;16.75;;;4.13;;
49217;SDS011;35045;51.194;7.268;2023-11-19T07:17:31;20.38;;;4.47;;
49217;SDS011;35045;51.194;7.268;2023-11-19T07:19:58;16.30;;;4.20;;
49217;SDS011;35045;51.194;7.268;2023-11-19T07:22:25;17.08;;;4.28;;
49217;SDS011;35045;51.194;7.268;2023-11-19T07:24:52;31.73;;;4.05;;
49217;SDS011;35045;51.194;7.268;2023-11-19T07:27:19;19.00;;;4.55;;
49217;SDS011;35045;51.194;7.268;2023-11-19T07:29:45;13.70;;;3.25;;
49217;SDS011;35045;51.194;7.268;2023-11-19T07:32:11;16.95;;;3.40;;
49217;SDS011;35045;51.194;7.268;2023-11-19T07:34:39;21.48;;;4.55;;
49217;SDS011;35045;51.194;7.268;2023-11-19T07:37:05;18.38;;;3.60;;
49217;SDS011;35045;51.194;7.268;2023-11-19T07:39:32;20.48;;;4.30;;
49217;SDS011;35045;51.194;7.268;2023-11-19T07:41:58;17.25;;;4.32;;
49217;SDS011;35045;51.194;7.268;2023-11-19T07:44:24;25.30;;;4.30;;
49217;SDS011;35045;51.194;7.268;2023-11-19T07:46:51;25.17;;;4.85;;
49217;SDS011;35045;51.194;7.268;2023-11-19T07:49:17;16.70;;;3.78;;
49217;SDS011;35045;51.194;7.268;2023-11-19T07:51:43;19.23;;;4.38;;
49217;SDS011;35045;51.194;7.268;2023-11-19T07:54:10;19.45;;;4.40;;
49217;SDS011;35045;51.194;7.268;2023-11-19T07:56:36;17.65;;;4.22;;
49217;SDS011;35045;51.194;7.268;2023-11-19T07:59:02;15.95;;;4.03;;
49217;SDS011;35045;51.194;7.268;2023-11-19T08:01:29;14.40;;;4.25;;
49217;SDS011;35045;51.194;7.268;2023-11-19T08:03:55;16.48;;;3.22;;
49217;SDS011;35045;51.194;7.268;2023-11-19T08:06:22;20.33;;;4.63;;
49217;SDS011;35045;51.194;7.268;2023-11-19T08:08:49;13.95;;;4.32;;
49217;SDS011;35045;51.194;7.268;2023-11-19T08:11:15;20.52;;;4.35;;
49217;SDS011;35045;51.194;7.268;2023-11-19T08:13:41;21.40;;;4.07;;
49217;SDS011;35045;51.194;7.268;2023-11-19T08:16:08;19.23;;;3.97;;
49217;SDS011;35045;51.194;7.268;2023-11-19T08:18:35;24.67;;;4.72;;
49217;SDS011;35045;51.194;7.268;2023-11-19T08:21:01;24.23;;;4.28;;
49217;SDS011;35045;51.194;7.268;2023-11-19T08:23:30;22.60;;;4.43;;
49217;SDS011;35045;51.194;7.268;2023-11-19T08:25:56;29.15;;;5.22;;
49217;SDS011;35045;51.194;7.268;2023-11-19T08:28:22;23.05;;;3.42;;
49217;SDS011;35045;51.194;7.268;2023-11-19T08:30:49;15.18;;;4.35;;
49217;SDS011;35045;51.194;7.268;2023-11-19T08:33:15;21.42;;;4.30;;
49217;SDS011;35045;51.194;7.268;2023-11-19T08:35:42;26.52;;;5.60;;
49217;SDS011;35045;51.194;7.268;2023-11-19T08:38:08;19.50;;;4.40;;
49217;SDS011;35045;51.194;7.268;2023-11-19T08:40:35;20.20;;;4.63;;
49217;SDS011;35045;51.194;7.268;2023-11-19T08:43:01;20.40;;;4.32;;
49217;SDS011;35045;51.194;7.268;2023-11-19T08:45:27;21.35;;;4.30;;
49217;SDS011;35045;51.194;7.268;2023-11-19T08:47:53;19.83;;;4.22;;
49217;SDS011;35045;51.194;7.268;2023-11-19T08:50:20;21.40;;;4.45;;
49217;SDS011;35045;51.194;7.268;2023-11-19T08:52:46;16.38;;;4.10;;
49217;SDS011;35045;51.194;7.268;2023-11-19T08:55:12;22.52;;;5.03;;
49217;SDS011;35045;51.194;7.268;2023-11-19T08:57:39;18.17;;;4.63;;
49217;SDS011;35045;51.194;7.268;2023-11-19T09:00:05;16.15;;;4.53;;
49217;SDS011;35045;51.194;7.268;2023-11-19T09:02:34;20.60;;;3.83;;
49217;SDS011;35045;51.194;7.268;2023-11-19T09:05:03;18.10;;;3.95;;
49217;SDS011;35045;51.194;7.268;2023-11-19T09:07:30;16.92;;;3.80;;
49217;SDS011;35045;51.194;7.268;2023-11-19T09:09:57;17.25;;;4.10;;
49217;SDS011;35045;51.194;7.268;2023-11-19T09:12:23;18.27;;;3.90;;
49217;SDS011;35045;51.194;7.268;2023-11-19T09:14:49;17.98;;;4.18;;
49217;SDS011;35045;51.194;7.268;2023-11-19T09:17:15;15.23;;;4.00;;
49217;SDS011;35045;51.194;7.268;2023-11-19T09:19:43;19.30;;;3.78;;
49217;SDS011;35045;51.194;7.268;2023-11-19T09:22:10;23.05;;;4.60;;
49217;SDS011;35045;51.194;7.268;2023-11-19T09:24:36;17.85;;;4.40;;
49217;SDS011;35045;51.194;7.268;2023-11-19T09:27:02;18.65;;;4.30;;
49217;SDS011;35045;51.194;7.268;2023-11-19T09:29:31;23.33;;;4.65;;
49217;SDS011;35045;51.194;7.268;2023-11-19T09:31:58;21.80;;;4.60;;
49217;SDS011;35045;51.194;7.268;2023-11-19T09:34:24;20.75;;;4.18;;
49217;SDS011;35045;51.194;7.268;2023-11-19T09:36:50;23.08;;;4.43;;
49217;SDS011;35045;51.194;7.268;2023-11-19T09:39:17;20.33;;;4.10;;
49217;SDS011;35045;51.194;7.268;2023-11-19T09:41:44;20.75;;;5.53;;
49217;SDS011;35045;51.194;7.268;2023-11-19T09:44:13;18.83;;;3.63;;
49217;SDS011;35045;51.194;7.268;2023-11-19T09:46:43;22.88;;;4.35;;
49217;SDS011;35045;51.194;7.268;2023-11-19T09:49:11;20.67;;;4.53;;
49217;SDS011;35045;51.194;7.268;2023-11-19T09:51:38;17.08;;;4.22;;
49217;SDS011;35045;51.194;7.268;2023-11-19T09:54:05;22.98;;;5.00;;
49217;SDS011;35045;51.194;7.268;2023-11-19T09:56:31;20.05;;;4.50;;
49217;SDS011;35045;51.194;7.268;2023-11-19T09:59:00;18.80;;;4.35;;
49217;SDS011;35045;51.194;7.268;2023-11-19T10:01:26;19.30;;;4.20;;
49217;SDS011;35045;51.194;7.268;2023-11-19T10:03:53;17.70;;;4.65;;
49217;SDS011;35045;51.194;7.268;2023-11-19T10:06:21;19.63;;;4.80;;
49217;SDS011;35045;51.194;7.268;2023-11-19T10:08:50;20.45;;;4.53;;
49217;SDS011;35045;51.194;7.268;2023-11-19T10:11:16;25.30;;;5.10;;
49217;SDS011;35045;51.194;7.268;2023-11-19T10:13:43;20.48;;;4.72;;
49217;SDS011;35045;51.194;7.268;2023-11-19T10:16:13;19.02;;;4.45;;
49217;SDS011;35045;51.194;7.268;2023-11-19T10:18:46;20.58;;;4.30;;
49217;SDS011;35045;51.194;7.268;2023-11-19T10:21:13;17.88;;;4.60;;
49217;SDS011;35045;51.194;7.268;2023-11-19T10:23:52;23.80;;;4.78;;
49217;SDS011;35045;51.194;7.268;2023-11-19T10:26:28;23.88;;;5.10;;
49217;SDS011;35045;51.194;7.268;2023-11-19T10:28:55;20.17;;;3.97;;
49217;SDS011;35045;51.194;7.268;2023-11-19T10:31:22;24.17;;;4.20;;
49217;SDS011;35045;51.194;7.268;2023-11-19T10:33:52;19.17;;;4.63;;
49217;SDS011;35045;51.194;7.268;2023-11-19T10:36:19;22.77;;;5.18;;
49217;SDS011;35045;51.194;7.268;2023-11-19T10:38:52;22.95;;;4.13;;
49217;SDS011;35045;51.194;7.268;2023-11-19T10:41:29;18.02;;;4.50;;
49217;SDS011;35045;51.194;7.268;2023-11-19T10:43:57;18.52;;;4.57;;
49217;SDS011;35045;51.194;7.268;2023-11-19T10:46:23;23.30;;;5.22;;
49217;SDS011;35045;51.194;7.268;2023-11-19T10:49:03;18.65;;;4.45;;
49217;SDS011;35045;51.194;7.268;2023-11-19T10:51:29;24.38;;;4.85;;
49217;SDS011;35045;51.194;7.268;2023-11-19T10:53:58;19.60;;;4.80;;
49217;SDS011;35045;51.194;7.268;2023-11-19T10:56:31;18.73;;;4.35;;
49217;SDS011;35045;51.194;7.268;2023-11-19T10:58:59;25.48;;;4.63;;
49217;SDS011;35045;51.194;7.268;2023-11-19T11:01:27;20.50;;;4.43;;
49217;SDS011;35045;51.194;7.268;2023-11-19T11:04:00;18.70;;;4.07;;
49217;SDS011;35045;51.194;7.268;2023-11-19T11:06:28;16.83;;;4.18;;
49217;SDS011;35045;51.194;7.268;2023-11-19T11:08:55;22.20;;;4.90;;
49217;SDS011;35045;51.194;7.268;2023-11-19T11:11:23;22.70;;;4.15;;
49217;SDS011;35045;51.194;7.268;2023-11-19T11:13:51;23.00;;;4.72;;
49217;SDS011;35045;51.194;7.268;2023-11-19T11:16:20;18.80;;;3.97;;
49217;SDS011;35045;51.194;7.268;2023-11-19T11:18:49;17.80;;;4.35;;
49217;SDS011;35045;51.194;7.268;2023-11-19T11:21:20;14.98;;;3.60;;
49217;SDS011;35045;51.194;7.268;2023-11-19T11:23:56;18.60;;;4.05;;
49217;SDS011;35045;51.194;7.268;2023-11-19T11:29:58;16.90;;;4.13;;
49217;SDS011;35045;51.194;7.268;2023-11-19T11:35:24;18.98;;;4.55;;
49217;SDS011;35045;51.194;7.268;2023-11-19T11:40:28;20.50;;;3.95;;
49217;SDS011;35045;51.194;7.268;2023-11-19T11:42:54;16.30;;;3.67;;
49217;SDS011;35045;51.194;7.268;2023-11-19T11:45:34;21.48;;;4.88;;
49217;SDS011;35045;51.194;7.268;2023-11-19T11:48:06;18.63;;;3.88;;
49217;SDS011;35045;51.194;7.268;2023-11-19T11:50:46;16.17;;;3.88;;
49217;SDS011;35045;51.194;7.268;2023-11-19T11:53:17;15.57;;;3.30;;
49217;SDS011;35045;51.194;7.268;2023-11-19T11:58:17;13.40;;;3.40;;
49217;SDS011;35045;51.194;7.268;2023-11-19T12:00:44;15.20;;;3.45;;
49217;SDS011;35045;51.194;7.268;2023-11-19T12:03:12;15.60;;;3.85;;
49217;SDS011;35045;51.194;7.268;2023-11-19T12:05:40;15.07;;;3.53;;
49217;SDS011;35045;51.194;7.268;2023-11-19T12:08:09;15.52;;;4.05;;
49217;SDS011;35045;51.194;7.268;2023-11-19T12:10:42;16.75;;;3.40;;
49217;SDS011;35045;51.194;7.268;2023-11-19T12:13:10;15.20;;;3.88;;
49217;SDS011;35045;51.194;7.268;2023-11-19T12:18:27;17.92;;;3.95;;
49217;SDS011;35045;51.194;7.268;2023-11-19T12:20:55;15.02;;;3.90;;
49217;SDS011;35045;51.194;7.268;2023-11-19T12:23:22;13.63;;;3.45;;
49217;SDS011;35045;51.194;7.268;2023-11-19T12:25:49;18.20;;;3.58;;
49217;SDS011;35045;51.194;7.268;2023-11-19T12:28:16;20.40;;;4.30;;
49217;SDS011;35045;51.194;7.268;2023-11-19T12:30:43;16.27;;;3.33;;
49217;SDS011;35045;51.194;7.268;2023-11-19T12:33:10;15.65;;;3.22;;
49217;SDS011;35045;51.194;7.268;2023-11-19T12:35:40;17.20;;;3.78;;
49217;SDS011;35045;51.194;7.268;2023-11-19T12:38:20;19.45;;;3.92;;
49217;SDS011;35045;51.194;7.268;2023-11-19T12:41:02;15.00;;;3.50;;
49217;SDS011;35045;51.194;7.268;2023-11-19T12:43:32;10.90;;;3.33;;
49217;SDS011;35045;51.194;7.268;2023-11-19T12:46:26;13.63;;;3.25;;
49217;SDS011;35045;51.194;7.268;2023-11-19T12:48:53;13.35;;;3.40;;
49217;SDS011;35045;51.194;7.268;2023-11-19T12:51:19;15.85;;;3.33;;
49217;SDS011;35045;51.194;7.268;2023-11-19T12:53:49;16.08;;;3.67;;
49217;SDS011;35045;51.194;7.268;2023-11-19T12:56:18;12.20;;;3.25;;
49217;SDS011;35045;51.194;7.268;2023-11-19T12:58:45;19.73;;;3.88;;
49217;SDS011;35045;51.194;7.268;2023-11-19T13:01:15;15.90;;;3.47;;
49217;SDS011;35045;51.194;7.268;2023-11-19T13:03:43;20.77;;;5.32;;
49217;SDS011;35045;51.194;7.268;2023-11-19T13:06:10;15.75;;;4.15;;
49217;SDS011;35045;51.194;7.268;2023-11-19T13:08:40;17.80;;;3.50;;
49217;SDS011;35045;51.194;7.268;2023-11-19T13:11:08;16.52;;;4.45;;
49217;SDS011;35045;51.194;7.268;2023-11-19T13:16:24;15.70;;;3.92;;
49217;SDS011;35045;51.194;7.268;2023-11-19T13:18:51;13.93;;;3.10;;
49217;SDS011;35045;51.194;7.268;2023-11-19T13:21:17;11.63;;;2.63;;
49217;SDS011;35045;51.194;7.268;2023-11-19T13:23:44;14.20;;;3.63;;
49217;SDS011;35045;51.194;7.268;2023-11-19T13:26:10;12.05;;;2.75;;
49217;SDS011;35045;51.194;7.268;2023-11-19T13:28:37;12.60;;;3.47;;
49217;SDS011;35045;51.194;7.268;2023-11-19T13:31:04;15.32;;;2.78;;
49217;SDS011;35045;51.194;7.268;2023-11-19T13:33:30;15.57;;;3.42;;
49217;SDS011;35045;51.194;7.268;2023-11-19T13:35:57;15.75;;;3.78;;
49217;SDS011;35045;51.194;7.268;2023-11-19T13:38:23;16.58;;;3.67;;
49217;SDS011;35045;51.194;7.268;2023-11-19T13:40:49;17.40;;;4.15;;
49217;SDS011;35045;51.194;7.268;2023-11-19T13:43:17;13.30;;;2.90;;
49217;SDS011;35045;51.194;7.268;2023-11-19T13:45:43;12.52;;;3.25;;
49217;SDS011;35045;51.194;7.268;2023-11-19T13:48:09;15.05;;;3.35;;
49217;SDS011;35045;51.194;7.268;2023-11-19T13:50:35;12.98;;;2.88;;
49217;SDS011;35045;51.194;7.268;2023-11-19T13:53:01;15.18;;;3.20;;
49217;SDS011;35045;51.194;7.268;2023-11-19T13:55:28;12.07;;;3.28;;
49217;SDS011;35045;51.194;7.268;2023-11-19T13:57:54;16.08;;;3.85;;
49217;SDS011;35045;51.194;7.268;2023-11-19T14:00:20;10.55;;;3.03;;
49217;SDS011;35045;51.194;7.268;2023-11-19T14:02:48;11.45;;;2.70;;
49217;SDS011;35045;51.194;7.268;2023-11-19T14:05:15;15.00;;;3.80;;
49217;SDS011;35045;51.194;7.268;2023-11-19T14:07:43;14.45;;;3.50;;
49217;SDS011;35045;51.194;7.268;2023-11-19T14:10:10;12.60;;;2.70;;
49217;SDS011;35045;51.194;7.268;2023-11-19T14:12:39;16.40;;;3.85;;
49217;SDS011;35045;51.194;7.268;2023-11-19T14:15:07;13.45;;;2.85;;
49217;SDS011;35045;51.194;7.268;2023-11-19T14:17:41;18.35;;;3.40;;
49217;SDS011;35045;51.194;7.268;2023-11-19T14:20:07;12.93;;;2.95;;
49217;SDS011;35045;51.194;7.268;2023-11-19T14:22:44;16.58;;;3.45;;
49217;SDS011;35045;51.194;7.268;2023-11-19T14:25:14;14.82;;;3.17;;
49217;SDS011;35045;51.194;7.268;2023-11-19T14:27:41;14.85;;;3.53;;
49217;SDS011;35045;51.194;7.268;2023-11-19T14:30:10;14.60;;;3.22;;
49217;SDS011;35045;51.194;7.268;2023-11-19T14:32:39;17.13;;;3.30;;
49217;SDS011;35045;51.194;7.268;2023-11-19T14:35:07;19.42;;;3.88;;
49217;SDS011;35045;51.194;7.268;2023-11-19T14:37:34;16.13;;;3.75;;
49217;SDS011;35045;51.194;7.268;2023-11-19T14:40:00;16.38;;;3.85;;
49217;SDS011;35045;51.194;7.268;2023-11-19T14:42:29;15.38;;;3.72;;
49217;SDS011;35045;51.194;7.268;2023-11-19T14:44:56;17.10;;;4.10;;
49217;SDS011;35045;51.194;7.268;2023-11-19T14:47:22;16.15;;;4.20;;
49217;SDS011;35045;51.194;7.268;2023-11-19T14:49:49;14.82;;;4.53;;
49217;SDS011;35045;51.194;7.268;2023-11-19T14:52:15;16.95;;;3.67;;
49217;SDS011;35045;51.194;7.268;2023-11-19T14:54:42;18.55;;;4.07;;
49217;SDS011;35045;51.194;7.268;2023-11-19T14:57:08;18.20;;;4.25;;